Time;durP1;ratioP1;P1;durP2;ratioP2;P2;SDS_P1;SDS_P2;PMS_P1;PMS_P2;Temp;Humidity;BMP_temperature;BMP_pressure;BME280_temperature;BME280_humidity;BME280_pressure;Samples;Min_cycle;Max_cycle;Signal;HPM_P1;HPM_P2
2021/09/13 00:04:31;;;;;;;23.30;18.12;;;;;;;15.66;89.80;99051.00;3862110;90;22250;-84
2021/09/13 00:10:33;;;;;;;20.95;16.97;;;;;;;15.62;90.14;99047.50;3862390;91;21154;-85
2021/09/13 00:16:34;;;;;;;25.43;17.77;;;;;;;15.46;90.44;99048.61;3875372;90;21085;-85
2021/09/13 00:22:38;;;;;;;22.30;17.57;;;;;;;15.50;90.68;99051.53;3861454;90;21190;-84
2021/09/13 00:28:40;;;;;;;20.30;16.57;;;;;;;15.48;90.41;99047.03;3868778;90;21110;-85
2021/09/13 00:34:41;;;;;;;21.17;17.98;;;;;;;15.54;90.77;99047.38;3873350;90;21103;-85
2021/09/13 00:40:46;;;;;;;22.98;15.70;;;;;;;15.36;90.86;99046.70;3876844;90;21073;-85
2021/09/13 00:47:01;;;;;;;23.83;18.97;;;;;;;15.42;91.29;99045.91;3908543;89;21179;-85
2021/09/13 00:53:06;;;;;;;18.67;14.95;;;;;;;15.46;91.32;99036.99;3922777;89;21054;-85
2021/09/13 00:59:15;;;;;;;18.60;14.00;;;;;;;15.54;91.53;99046.78;3867763;90;21625;-84
2021/09/13 01:05:24;;;;;;;31.77;16.05;;;;;;;15.62;91.42;99034.50;3859786;90;21575;-84
2021/09/13 01:11:26;;;;;;;20.10;15.08;;;;;;;15.49;91.01;99033.42;3850211;90;21157;-85
2021/09/13 01:17:27;;;;;;;18.75;15.50;;;;;;;15.49;91.19;99028.48;3851808;91;21174;-84
2021/09/13 01:23:35;;;;;;;21.23;15.32;;;;;;;15.53;91.05;99032.78;3858504;90;21179;-84
2021/09/13 01:29:39;;;;;;;21.15;14.93;;;;;;;15.48;90.77;99025.55;3861021;90;21618;-84
2021/09/13 01:35:42;;;;;;;19.37;14.53;;;;;;;15.29;90.91;99024.67;3864586;90;21200;-84
2021/09/13 01:41:44;;;;;;;16.62;13.22;;;;;;;15.18;90.83;99013.73;3914547;89;21610;-84
2021/09/13 01:47:47;;;;;;;18.87;13.88;;;;;;;15.21;91.03;99018.44;3835827;90;21145;-85
2021/09/13 01:53:51;;;;;;;19.70;15.30;;;;;;;15.20;90.85;99018.84;3869907;91;21106;-84
2021/09/13 02:00:03;;;;;;;17.35;14.38;;;;;;;15.03;90.38;99021.92;3852815;90;21127;-85
2021/09/13 02:06:09;;;;;;;22.63;14.57;;;;;;;14.97;90.82;99033.16;3851439;90;21156;-83
2021/09/13 02:12:10;;;;;;;17.30;13.45;;;;;;;14.91;90.75;99029.87;3857474;90;21206;-84
2021/09/13 02:18:12;;;;;;;20.65;13.22;;;;;;;14.92;91.29;99030.05;3869816;90;21287;-85
2021/09/13 02:24:15;;;;;;;19.60;15.80;;;;;;;14.98;91.12;99037.50;3858936;90;21637;-85
2021/09/13 02:30:22;;;;;;;18.55;13.85;;;;;;;14.85;90.56;99036.38;3853068;90;21169;-84
2021/09/13 02:36:31;;;;;;;18.37;14.38;;;;;;;14.83;91.34;99033.84;3897851;88;21483;-84
2021/09/13 02:42:35;;;;;;;19.85;14.38;;;;;;;14.74;91.21;99037.03;3862172;90;22392;-84
2021/09/13 02:48:41;;;;;;;17.52;13.28;;;;;;;14.67;91.39;99031.56;3859873;90;21094;-84
2021/09/13 02:54:45;;;;;;;16.50;14.03;;;;;;;14.81;92.03;99037.00;3847449;90;21114;-84
2021/09/13 03:00:46;;;;;;;18.30;13.78;;;;;;;14.96;91.99;99034.35;3849929;90;21109;-84
2021/09/13 03:06:51;;;;;;;17.50;13.75;;;;;;;15.05;91.86;99037.44;3842874;90;21634;-84
2021/09/13 03:12:52;;;;;;;19.70;13.80;;;;;;;15.13;91.89;99039.55;3859489;90;21093;-84
2021/09/13 03:18:53;;;;;;;18.07;14.13;;;;;;;15.13;91.78;99043.10;3868120;90;21584;-84
2021/09/13 03:24:54;;;;;;;18.67;13.53;;;;;;;15.19;91.80;99043.48;3893220;90;21083;-84
2021/09/13 03:31:03;;;;;;;24.67;14.85;;;;;;;15.07;91.78;99054.38;3894874;90;21119;-83
2021/09/13 03:37:12;;;;;;;19.27;14.33;;;;;;;15.12;91.95;99048.44;3885405;90;21146;-84
2021/09/13 03:43:14;;;;;;;20.62;15.83;;;;;;;15.02;91.65;99047.10;3892943;90;21150;-84
2021/09/13 03:49:17;;;;;;;19.73;14.95;;;;;;;14.79;92.12;99049.02;3885927;90;21138;-84
2021/09/13 03:55:21;;;;;;;18.17;13.55;;;;;;;14.89;92.94;99048.77;3882666;90;21135;-84
2021/09/13 04:01:23;;;;;;;15.05;12.95;;;;;;;15.05;92.87;99050.46;3857579;89;21111;-85
2021/09/13 04:08:29;;;;;;;;;;;;;;;;;;;;;
2021/09/13 04:13:47;;;;;;;16.35;12.80;;;;;;;15.15;92.92;99053.14;3855633;90;21143;-84
2021/09/13 04:19:59;;;;;;;17.25;13.30;;;;;;;15.13;92.93;99043.69;3910637;89;21137;-84
2021/09/13 04:26:05;;;;;;;19.35;15.23;;;;;;;15.21;92.95;99046.59;3919261;89;21114;-84
2021/09/13 04:32:09;;;;;;;18.87;14.43;;;;;;;15.21;92.76;99049.35;3907188;89;21188;-84
2021/09/13 04:38:26;;;;;;;17.80;13.65;;;;;;;15.00;92.96;99046.74;3753345;92;34087;-83
2021/09/13 04:45:03;;;;;;;17.23;14.03;;;;;;;15.12;93.34;99063.60;3768891;92;21171;-85
2021/09/13 04:51:23;;;;;;;18.02;15.75;;;;;;;15.20;93.22;99059.62;3744218;93;21098;-84
2021/09/13 04:57:26;;;;;;;16.82;14.30;;;;;;;15.26;93.09;99066.85;3726242;93;21137;-85
2021/09/13 05:03:27;;;;;;;17.30;14.07;;;;;;;15.10;92.69;99068.73;3716276;93;21166;-84
2021/09/13 05:09:29;;;;;;;19.25;14.78;;;;;;;14.98;92.99;99063.69;3710836;94;21229;-84
2021/09/13 05:15:31;;;;;;;17.50;13.93;;;;;;;14.91;93.57;99073.97;3712323;93;21126;-84
2021/09/13 05:21:41;;;;;;;20.10;13.88;;;;;;;15.07;93.70;99075.62;3711999;93;21091;-85
2021/09/13 05:28:00;;;;;;;18.17;13.38;;;;;;;15.13;93.57;99078.16;3717770;93;21222;-84
2021/09/13 05:34:01;;;;;;;18.85;14.58;;;;;;;15.05;93.98;99088.44;3705398;94;21158;-84
2021/09/13 05:40:06;;;;;;;16.95;13.60;;;;;;;15.17;94.20;99089.38;3745832;93;21626;-85
2021/09/13 05:46:39;;;;;;;19.77;13.30;;;;;;;15.33;94.37;99095.78;3625432;96;21671;-84
2021/09/13 05:52:43;;;;;;;19.30;14.63;;;;;;;15.54;94.39;99095.06;3626673;96;21099;-85
2021/09/13 05:58:45;;;;;;;20.27;14.30;;;;;;;15.72;94.16;99100.46;3631493;96;21114;-84
2021/09/13 06:04:57;;;;;;;18.48;14.40;;;;;;;15.83;94.17;99104.51;3628358;96;21204;-84
2021/09/13 06:11:11;;;;;;;17.80;14.68;;;;;;;15.98;94.20;99095.70;3734671;93;21174;-85
2021/09/13 06:23:45;;;;;;;25.70;20.02;;;;;;;16.30;93.92;99108.59;3725566;92;21627;-85
2021/09/13 06:30:27;;;;;;;27.25;19.02;;;;;;;16.48;93.91;99109.83;3715575;94;21109;-85
2021/09/13 06:36:30;;;;;;;24.72;17.70;;;;;;;16.67;94.06;99111.98;3719629;94;21169;-83
2021/09/13 06:49:34;;;;;;;20.75;16.73;;;;;;;16.99;93.88;99113.78;3686471;95;21616;-84
2021/09/13 06:56:07;;;;;;;30.40;21.97;;;;;;;17.14;93.74;99120.69;3680532;94;21806;-84
2021/09/13 07:02:09;;;;;;;25.57;19.77;;;;;;;17.26;93.62;99129.03;3764271;93;21191;-84
2021/09/13 07:08:24;;;;;;;28.27;20.92;;;;;;;17.23;93.52;99132.81;3688560;95;21168;-85
2021/09/13 07:21:42;;;;;;;28.00;21.83;;;;;;;17.35;93.57;99131.48;3607619;96;21175;-84
2021/09/13 07:27:49;;;;;;;27.35;19.90;;;;;;;17.48;93.38;99140.79;3641882;96;21094;-85
2021/09/13 07:33:55;;;;;;;32.15;22.02;;;;;;;17.56;93.30;99147.80;3627066;96;21227;-85
2021/09/13 07:40:00;;;;;;;34.23;25.63;;;;;;;17.64;93.23;99145.11;3698346;93;21137;-84
2021/09/13 07:46:02;;;;;;;30.32;22.87;;;;;;;17.83;93.37;99133.34;3777423;93;21749;-84
2021/09/13 07:52:04;;;;;;;29.37;22.58;;;;;;;18.20;93.37;99136.48;3782940;92;21940;-85
2021/09/13 08:04:45;;;;;;;34.27;23.20;;;;;;;18.91;92.75;99151.23;3770306;92;22343;-85
2021/09/13 08:10:50;;;;;;;31.55;23.62;;;;;;;19.37;92.16;99151.11;3715162;94;21146;-85
2021/09/13 08:17:26;;;;;;;41.55;21.80;;;;;;;19.84;91.82;99144.84;3707962;93;21137;-83
2021/09/13 08:23:49;;;;;;;37.10;29.02;;;;;;;20.36;91.42;99151.72;3711392;93;22539;-84
2021/09/13 08:29:57;;;;;;;30.80;22.62;;;;;;;20.43;90.14;99157.11;3707931;94;21098;-85
2021/09/13 08:35:58;;;;;;;28.62;22.80;;;;;;;20.41;89.87;99161.52;3702543;93;21109;-85
2021/09/13 08:42:00;;;;;;;31.30;23.02;;;;;;;20.45;89.86;99167.19;3715030;93;21159;-86
2021/09/13 08:54:37;;;;;;;28.15;19.55;;;;;;;20.99;89.47;99165.34;3701702;93;21705;-85
2021/09/13 09:00:53;;;;;;;28.10;17.70;;;;;;;21.52;88.00;99169.34;3717050;94;21762;-85
2021/09/13 09:07:28;;;;;;;26.35;16.95;;;;;;;21.70;87.85;99177.36;3711290;94;21186;-85
2021/09/13 09:13:43;;;;;;;22.37;16.45;;;;;;;21.70;86.44;99175.97;3720633;94;21625;-84
2021/09/13 09:20:36;;;;;;;27.02;16.82;;;;;;;21.52;86.15;99174.92;3742816;93;21195;-85
2021/09/13 09:27:11;;;;;;;21.95;14.83;;;;;;;21.44;85.76;99175.75;3727955;94;25916;-84
2021/09/13 09:33:26;;;;;;;22.75;17.95;;;;;;;21.19;85.49;99179.87;3711031;94;21477;-83
2021/09/13 09:40:01;;;;;;;25.50;20.37;;;;;;;21.24;85.31;99179.94;3610445;97;21988;-85
2021/09/13 09:46:18;;;;;;;25.12;17.92;;;;;;;21.33;84.77;99174.52;3587208;96;21797;-84
2021/09/13 09:59:22;;;;;;;29.12;20.05;;;;;;;22.11;85.19;99163.94;3593748;97;21214;-84
2021/09/13 10:05:40;;;;;;;21.57;16.32;;;;;;;23.73;83.51;99159.50;3591690;96;21244;-84
2021/09/13 10:18:25;;;;;;;18.42;16.50;;;;;;;25.20;78.71;99130.84;3644903;96;21811;-85
2021/09/13 10:24:38;;;;;;;14.55;11.88;;;;;;;25.84;76.98;99148.28;3738793;93;21206;-85
2021/09/13 10:30:48;;;;;;;10.15;7.90;;;;;;;26.60;76.83;99142.87;3744304;93;21795;-84
2021/09/13 10:37:16;;;;;;;8.03;6.58;;;;;;;27.42;73.71;99131.72;3747588;93;21089;-84
2021/09/13 10:43:26;;;;;;;12.78;9.13;;;;;;;27.97;71.79;99131.86;3735361;93;21146;-85
2021/09/13 10:49:29;;;;;;;11.33;8.23;;;;;;;28.38;69.46;99124.37;3682017;95;21679;-85
2021/09/13 11:02:07;;;;;;;13.40;9.43;;;;;;;28.89;66.28;99120.31;3668725;95;21465;-86
2021/09/13 11:16:15;;;;;;;12.13;9.90;;;;;;;28.73;63.45;99106.02;3717932;93;21167;-85
2021/09/13 11:22:22;;;;;;;13.43;9.68;;;;;;;28.50;61.77;99107.03;3683917;95;21139;-85
2021/09/13 11:28:54;;;;;;;11.50;9.00;;;;;;;28.32;60.74;99107.27;3743361;93;21178;-84
2021/09/13 11:35:20;;;;;;;10.65;9.53;;;;;;;27.83;59.51;99104.51;3751269;93;21202;-85
2021/09/13 11:41:23;;;;;;;16.65;9.95;;;;;;;27.42;59.47;99099.39;3742643;93;21095;-83
2021/09/13 11:47:45;;;;;;;10.53;9.33;;;;;;;27.10;59.43;99098.30;3693253;94;21160;-85
2021/09/13 11:54:08;;;;;;;13.95;8.98;;;;;;;26.39;59.30;99103.89;3707090;94;21487;-85
2021/09/13 12:00:28;;;;;;;13.85;9.30;;;;;;;25.79;59.45;99105.47;3707449;94;21115;-85
2021/09/13 12:06:29;;;;;;;10.70;7.55;;;;;;;25.16;59.38;99101.44;3777416;92;21120;-85
2021/09/13 12:12:34;;;;;;;13.75;10.28;;;;;;;24.62;59.72;99093.23;3777027;92;21098;-84
2021/09/13 12:18:36;;;;;;;13.77;9.97;;;;;;;24.38;59.85;99088.73;3782739;92;21636;-85
2021/09/13 12:31:09;;;;;;;16.07;10.63;;;;;;;24.20;60.27;99082.48;3781405;92;21125;-85
2021/09/13 12:43:47;;;;;;;13.15;9.83;;;;;;;23.92;61.17;99050.71;3709401;94;21039;-85
2021/09/13 12:49:56;;;;;;;12.70;10.05;;;;;;;23.92;61.17;99050.71;3748716;93;21762;-85
2021/09/13 12:56:33;;;;;;;12.80;10.45;;;;;;;23.56;61.33;99032.45;3744086;93;21095;-85
2021/09/13 13:02:48;;;;;;;;;;;;;;;23.64;61.34;99071.44;3674168;95;21095;-84
2021/09/13 13:09:09;;;;;;;13.58;10.40;;;;;;;23.39;61.80;99076.63;3621345;97;20204;-85
2021/09/13 13:15:11;;;;;;;9.30;8.33;;;;;;;23.17;62.20;99074.47;3740060;93;21155;-85
2021/09/13 13:21:21;;;;;;;11.50;9.53;;;;;;;22.97;62.21;99080.39;3743584;93;21683;-85
2021/09/13 13:27:26;;;;;;;13.45;8.75;;;;;;;22.88;62.48;99065.63;3699067;93;21722;-85
2021/09/13 13:33:27;;;;;;;12.80;8.63;;;;;;;22.76;63.11;99072.03;3741830;93;21594;-85
2021/09/13 13:39:50;;;;;;;11.55;9.40;;;;;;;22.67;63.40;99070.58;3745745;93;21696;-85
2021/09/13 13:46:10;;;;;;;13.03;9.50;;;;;;;22.52;63.80;99073.73;3678871;92;21132;-85
2021/09/13 13:52:12;;;;;;;14.15;8.60;;;;;;;22.45;64.08;99077.52;3704725;93;21094;-85
2021/09/13 13:58:15;;;;;;;11.80;9.45;;;;;;;22.39;64.68;99077.93;3706739;93;21650;-86
2021/09/13 14:04:16;;;;;;;12.28;9.68;;;;;;;22.51;64.73;99076.30;3708751;93;21157;-85
2021/09/13 14:10:17;;;;;;;12.40;9.43;;;;;;;22.53;64.65;99076.06;3710845;93;21103;-84
2021/09/13 14:16:28;;;;;;;11.78;8.38;;;;;;;22.44;64.93;99072.39;3715219;93;21579;-84
2021/09/13 14:22:30;;;;;;;12.95;8.38;;;;;;;22.38;64.98;99072.81;3710790;94;21167;-85
2021/09/13 14:29:09;;;;;;;10.55;7.62;;;;;;;22.28;65.14;99079.52;3705126;95;21095;-85
2021/09/13 14:35:19;;;;;;;17.35;8.73;;;;;;;22.16;65.43;99077.56;3700728;95;21739;-85
2021/09/13 14:42:03;;;;;;;9.93;8.95;;;;;;;22.06;65.45;99079.48;3737608;93;21827;-85
2021/09/13 14:48:08;;;;;;;10.30;8.45;;;;;;;21.91;65.57;99082.55;3726067;93;21635;-86
2021/09/13 14:54:10;;;;;;;12.78;10.20;;;;;;;21.77;65.84;99087.84;3789624;92;22309;-85
2021/09/13 15:00:33;;;;;;;12.93;9.68;;;;;;;21.58;66.06;99102.90;3698942;93;21677;-84
2021/09/13 15:06:42;;;;;;;14.43;9.00;;;;;;;21.44;66.31;99106.73;3761403;93;21230;-85
2021/09/13 15:12:44;;;;;;;11.90;9.85;;;;;;;21.42;66.67;99114.14;3767346;92;21156;-85
2021/09/13 15:18:48;;;;;;;14.95;10.03;;;;;;;21.39;66.73;99115.66;3709476;92;21085;-84
2021/09/13 15:25:41;;;;;;;16.10;10.88;;;;;;;21.35;67.11;99112.97;3720774;93;21708;-85
2021/09/13 15:31:43;;;;;;;18.35;10.75;;;;;;;21.36;67.38;99117.94;3725889;93;21099;-86
2021/09/13 15:37:54;;;;;;;18.60;10.50;;;;;;;21.33;67.50;99115.41;3722620;94;21189;-85
2021/09/13 15:43:57;;;;;;;14.90;10.05;;;;;;;21.34;67.65;99117.59;3718975;93;21094;-85
2021/09/13 15:50:31;;;;;;;16.57;10.23;;;;;;;21.29;67.77;99115.36;3718010;93;21138;-85
2021/09/13 15:56:41;;;;;;;15.38;10.15;;;;;;;21.20;68.51;99122.20;3823072;91;21117;-85
2021/09/13 16:02:43;;;;;;;14.58;9.60;;;;;;;20.99;68.74;99122.80;3811034;92;21067;-85
2021/09/13 16:08:54;;;;;;;14.60;10.80;;;;;;;20.77;69.12;99120.42;3799439;90;94531;-85
2021/09/13 16:21:55;;;;;;;13.88;10.55;;;;;;;20.67;70.09;99122.91;3692126;93;21151;-85
2021/09/13 16:28:09;;;;;;;15.72;11.78;;;;;;;20.59;70.53;99129.27;3798323;93;21165;-85
2021/09/13 16:34:30;;;;;;;16.80;11.40;;;;;;;20.51;70.84;99125.72;3800839;93;21119;-85
2021/09/13 16:40:34;;;;;;;16.20;11.83;;;;;;;20.40;71.35;99125.22;3807382;93;21123;-85
2021/09/13 16:46:36;;;;;;;16.97;12.03;;;;;;;20.22;72.02;99130.47;3804809;93;21659;-85
2021/09/13 16:52:48;;;;;;;17.62;12.23;;;;;;;20.19;72.41;99130.12;3828498;91;21763;-85
2021/09/13 16:58:50;;;;;;;17.17;12.40;;;;;;;20.05;72.76;99131.83;3862393;90;21114;-86
2021/09/13 17:05:03;;;;;;;18.55;12.95;;;;;;;19.84;73.40;99137.13;3874871;90;21433;-85
2021/09/13 17:11:04;;;;;;;20.15;14.87;;;;;;;19.64;73.96;99130.23;3866383;90;21126;-85
2021/09/13 17:17:06;;;;;;;24.40;14.33;;;;;;;19.40;74.44;99141.91;3859973;90;21152;-86
2021/09/13 17:23:35;;;;;;;19.07;14.87;;;;;;;19.19;75.11;99138.16;3806862;91;21787;-85
2021/09/13 17:29:51;;;;;;;33.78;17.00;;;;;;;19.03;75.58;99149.98;3642398;96;21241;-86
2021/09/13 17:35:53;;;;;;;26.27;16.65;;;;;;;18.76;76.10;99151.34;3758861;93;21721;-85
2021/09/13 17:41:54;;;;;;;25.55;18.70;;;;;;;18.57;76.68;99153.66;3751213;93;21253;-86
2021/09/13 17:47:55;;;;;;;22.00;14.83;;;;;;;18.47;77.11;99155.23;3765034;93;21657;-85
2021/09/13 17:54:00;;;;;;;26.40;16.70;;;;;;;18.28;77.47;99168.41;3851571;91;21062;-86
2021/09/13 18:00:27;;;;;;;27.73;16.17;;;;;;;17.97;77.92;99171.10;3883841;90;21084;-85
2021/09/13 18:06:28;;;;;;;28.90;16.87;;;;;;;17.86;78.37;99173.25;3811503;92;21634;-85
2021/09/13 18:12:32;;;;;;;21.15;16.50;;;;;;;17.63;78.99;99188.44;3905304;90;21069;-85
2021/09/13 18:24:49;;;;;;;45.30;27.35;;;;;;;17.38;79.77;99195.67;3887470;90;21124;-85
2021/09/13 18:30:50;;;;;;;30.52;18.62;;;;;;;17.32;80.33;99200.06;3812958;93;21106;-85
2021/09/13 18:37:03;;;;;;;38.17;24.75;;;;;;;17.29;80.92;99198.75;3876823;90;21093;-85
2021/09/13 18:43:26;;;;;;;38.40;24.45;;;;;;;17.19;81.11;99199.06;3833605;93;21066;-85
2021/09/13 18:49:44;;;;;;;32.95;22.30;;;;;;;17.05;81.37;99202.00;3902852;90;21137;-85
2021/09/13 18:55:45;;;;;;;36.42;24.27;;;;;;;16.89;81.79;99203.95;3867108;90;21568;-86
2021/09/13 19:01:47;;;;;;;43.23;23.92;;;;;;;16.86;81.90;99204.78;3841842;92;21613;-85
2021/09/13 19:08:12;;;;;;;34.70;22.27;;;;;;;16.65;82.17;99204.98;3796149;92;21043;-85
2021/09/13 19:14:48;;;;;;;37.58;23.12;;;;;;;16.52;82.67;99210.83;3868554;91;21081;-85
2021/09/13 19:21:10;;;;;;;37.15;21.70;;;;;;;16.39;82.90;99218.05;3764986;93;21051;-85
2021/09/13 19:27:11;;;;;;;32.08;20.85;;;;;;;16.29;83.52;99216.73;3874125;90;21073;-85
2021/09/13 19:33:19;;;;;;;30.65;21.52;;;;;;;16.22;83.27;99217.59;3876516;91;21667;-85
2021/09/13 19:39:21;;;;;;;30.62;21.40;;;;;;;16.08;83.62;99219.09;3801159;93;21478;-85
2021/09/13 19:45:42;;;;;;;36.90;21.87;;;;;;;15.98;83.89;99218.56;3879385;91;21113;-85
2021/09/13 19:51:44;;;;;;;32.15;20.88;;;;;;;15.84;84.19;99228.90;3868541;90;21647;-85
2021/09/13 19:57:52;;;;;;;37.08;23.32;;;;;;;15.75;84.83;99234.09;3803426;92;21078;-86
2021/09/13 20:04:04;;;;;;;33.28;22.15;;;;;;;15.70;84.91;99233.92;3862063;91;21175;-85
2021/09/13 20:10:49;;;;;;;37.88;21.60;;;;;;;15.56;85.19;99238.94;3855258;91;21113;-85
2021/09/13 20:16:59;;;;;;;37.63;21.68;;;;;;;15.59;85.31;99238.13;3853687;91;21082;-84
2021/09/13 20:23:13;;;;;;;36.05;23.73;;;;;;;15.39;85.94;99232.88;3847139;91;21099;-84
2021/09/13 20:29:22;;;;;;;34.25;23.35;;;;;;;15.29;86.23;99237.04;3856689;91;21023;-85
2021/09/13 20:35:41;;;;;;;39.67;24.52;;;;;;;15.34;87.01;99238.01;3862156;90;21165;-84
2021/09/13 20:48:23;;;;;;;37.98;24.25;;;;;;;15.31;87.62;99247.09;3864431;91;21106;-85
2021/09/13 20:54:38;;;;;;;43.92;27.80;;;;;;;15.38;87.68;99246.48;3859095;90;21091;-84
2021/09/13 21:00:51;;;;;;;51.23;31.80;;;;;;;15.33;87.79;99250.23;3840021;92;21099;-84
2021/09/13 21:13:49;;;;;;;36.38;25.35;;;;;;;15.38;88.17;99256.14;3801478;92;21175;-84
2021/09/13 21:20:04;;;;;;;32.67;24.47;;;;;;;15.25;88.51;99253.59;3880442;91;21062;-85
2021/09/13 21:26:25;;;;;;;32.90;23.38;;;;;;;15.38;89.45;99258.91;3866547;91;21079;-85
2021/09/13 21:32:36;;;;;;;36.43;25.03;;;;;;;15.61;89.37;99262.56;3890573;91;21171;-85
2021/09/13 21:38:38;;;;;;;39.93;25.27;;;;;;;15.75;89.32;99269.38;3865382;91;21159;-85
2021/09/13 21:45:18;;;;;;;35.00;24.07;;;;;;;15.74;89.37;99267.80;3880839;91;21055;-85
2021/09/13 21:51:44;;;;;;;37.55;23.67;;;;;;;15.67;89.46;99265.09;3871909;91;21089;-85
2021/09/13 21:57:45;;;;;;;26.48;21.45;;;;;;;15.63;89.80;99267.06;3786869;92;21622;-86
2021/09/13 22:03:52;;;;;;;35.85;20.80;;;;;;;15.60;90.14;99262.34;3846836;91;21116;-85
2021/09/13 22:10:05;;;;;;;31.97;22.80;;;;;;;15.70;90.32;99268.42;3834630;92;21183;-85
2021/09/13 22:16:24;;;;;;;28.42;21.37;;;;;;;15.66;90.29;99260.73;3848900;92;21705;-85
2021/09/13 22:22:51;;;;;;;29.05;22.00;;;;;;;15.70;90.51;99262.90;3850250;92;21592;-85
2021/09/13 22:29:14;;;;;;;33.90;22.05;;;;;;;15.73;90.11;99259.33;3843385;92;21189;-85
2021/09/13 22:35:23;;;;;;;30.25;22.48;;;;;;;15.57;90.50;99256.25;3843208;92;21838;-85
2021/09/13 22:41:24;;;;;;;31.93;23.65;;;;;;;15.54;90.53;99259.81;3842332;92;21260;-85
2021/09/13 22:47:36;;;;;;;32.63;23.75;;;;;;;15.54;90.47;99269.47;3841693;92;21063;-85
2021/09/13 22:53:41;;;;;;;31.95;22.58;;;;;;;15.49;90.55;99266.54;3832505;92;21102;-85
2021/09/13 22:59:42;;;;;;;29.95;19.92;;;;;;;15.27;89.66;99267.77;3789815;92;21140;-85
2021/09/13 23:05:43;;;;;;;28.42;21.70;;;;;;;15.04;90.16;99274.35;3729721;95;21531;-85
2021/09/13 23:11:47;;;;;;;24.25;17.92;;;;;;;14.98;90.17;99280.08;3782964;93;21035;-84
2021/09/13 23:17:48;;;;;;;28.45;20.45;;;;;;;14.98;90.90;99290.31;3867049;91;21069;-85
2021/09/13 23:23:57;;;;;;;31.42;23.12;;;;;;;14.94;90.26;99284.03;3863779;92;21087;-85
2021/09/13 23:30:05;;;;;;;30.85;22.40;;;;;;;14.76;90.16;99284.05;3862575;91;21071;-85
2021/09/13 23:36:13;;;;;;;31.48;22.58;;;;;;;14.60;90.23;99285.04;3859526;92;21031;-85
2021/09/13 23:42:22;;;;;;;33.40;22.65;;;;;;;14.47;90.21;99287.22;3790170;94;21106;-85
2021/09/13 23:48:36;;;;;;;29.05;20.25;;;;;;;14.40;90.61;99289.38;3734979;94;21155;-85
2021/09/13 23:55:08;;;;;;;27.75;17.15;;;;;;;14.47;91.11;99294.10;3845150;90;21306;-85
